sensor_id;sensor_type;location;lat;lon;timestamp;P1;durP1;ratioP1;P2;durP2;ratioP2
4742;SDS011;24293;48.154;7.748;2023-05-07T00:01:03;7.07;;;4.20;;
4742;SDS011;24293;48.154;7.748;2023-05-07T00:03:31;8.10;;;3.70;;
4742;SDS011;24293;48.154;7.748;2023-05-07T00:05:57;6.60;;;3.77;;
4742;SDS011;24293;48.154;7.748;2023-05-07T00:08:24;4.83;;;3.27;;
4742;SDS011;24293;48.154;7.748;2023-05-07T00:10:50;6.60;;;3.50;;
4742;SDS011;24293;48.154;7.748;2023-05-07T00:13:17;9.93;;;3.43;;
4742;SDS011;24293;48.154;7.748;2023-05-07T00:15:44;4.30;;;3.00;;
4742;SDS011;24293;48.154;7.748;2023-05-07T00:18:11;6.60;;;3.57;;
4742;SDS011;24293;48.154;7.748;2023-05-07T00:20:37;4.70;;;3.50;;
4742;SDS011;24293;48.154;7.748;2023-05-07T00:23:04;8.80;;;3.50;;
4742;SDS011;24293;48.154;7.748;2023-05-07T00:25:30;6.43;;;4.00;;
4742;SDS011;24293;48.154;7.748;2023-05-07T00:27:57;5.93;;;3.67;;
4742;SDS011;24293;48.154;7.748;2023-05-07T00:30:27;5.97;;;3.47;;
4742;SDS011;24293;48.154;7.748;2023-05-07T00:32:55;6.43;;;3.70;;
4742;SDS011;24293;48.154;7.748;2023-05-07T00:35:22;7.20;;;3.80;;
4742;SDS011;24293;48.154;7.748;2023-05-07T00:37:48;9.30;;;3.77;;
4742;SDS011;24293;48.154;7.748;2023-05-07T00:40:15;7.67;;;3.63;;
4742;SDS011;24293;48.154;7.748;2023-05-07T00:42:41;7.00;;;3.50;;
4742;SDS011;24293;48.154;7.748;2023-05-07T00:45:12;4.80;;;3.67;;
4742;SDS011;24293;48.154;7.748;2023-05-07T00:47:38;5.97;;;4.00;;
4742;SDS011;24293;48.154;7.748;2023-05-07T00:50:07;7.63;;;3.90;;
4742;SDS011;24293;48.154;7.748;2023-05-07T00:52:34;6.87;;;3.30;;
4742;SDS011;24293;48.154;7.748;2023-05-07T00:55:01;4.30;;;3.70;;
4742;SDS011;24293;48.154;7.748;2023-05-07T00:57:29;9.03;;;3.73;;
4742;SDS011;24293;48.154;7.748;2023-05-07T00:59:58;5.40;;;4.03;;
4742;SDS011;24293;48.154;7.748;2023-05-07T01:02:25;4.90;;;3.70;;
4742;SDS011;24293;48.154;7.748;2023-05-07T01:04:51;6.23;;;3.70;;
4742;SDS011;24293;48.154;7.748;2023-05-07T01:07:19;7.50;;;3.57;;
4742;SDS011;24293;48.154;7.748;2023-05-07T01:09:45;10.50;;;4.37;;
4742;SDS011;24293;48.154;7.748;2023-05-07T01:12:12;8.60;;;4.13;;
4742;SDS011;24293;48.154;7.748;2023-05-07T01:14:39;7.23;;;3.90;;
4742;SDS011;24293;48.154;7.748;2023-05-07T01:17:05;6.30;;;3.80;;
4742;SDS011;24293;48.154;7.748;2023-05-07T01:19:32;8.00;;;3.80;;
4742;SDS011;24293;48.154;7.748;2023-05-07T01:22:01;7.07;;;3.80;;
4742;SDS011;24293;48.154;7.748;2023-05-07T01:24:29;4.97;;;3.70;;
4742;SDS011;24293;48.154;7.748;2023-05-07T01:26:56;10.87;;;4.20;;
4742;SDS011;24293;48.154;7.748;2023-05-07T01:29:22;9.63;;;4.40;;
4742;SDS011;24293;48.154;7.748;2023-05-07T01:31:49;9.73;;;4.17;;
4742;SDS011;24293;48.154;7.748;2023-05-07T01:34:16;10.70;;;4.90;;
4742;SDS011;24293;48.154;7.748;2023-05-07T01:36:43;8.67;;;4.63;;
4742;SDS011;24293;48.154;7.748;2023-05-07T01:39:10;7.43;;;4.60;;
4742;SDS011;24293;48.154;7.748;2023-05-07T01:41:38;9.03;;;4.77;;
4742;SDS011;24293;48.154;7.748;2023-05-07T01:44:05;6.30;;;4.40;;
4742;SDS011;24293;48.154;7.748;2023-05-07T01:46:31;7.60;;;4.70;;
4742;SDS011;24293;48.154;7.748;2023-05-07T01:48:59;8.43;;;4.77;;
4742;SDS011;24293;48.154;7.748;2023-05-07T01:51:25;5.90;;;4.30;;
4742;SDS011;24293;48.154;7.748;2023-05-07T01:53:52;8.30;;;4.83;;
4742;SDS011;24293;48.154;7.748;2023-05-07T01:56:19;7.30;;;4.73;;
4742;SDS011;24293;48.154;7.748;2023-05-07T01:58:47;8.13;;;4.87;;
4742;SDS011;24293;48.154;7.748;2023-05-07T02:01:14;10.33;;;5.07;;
4742;SDS011;24293;48.154;7.748;2023-05-07T02:03:40;7.60;;;5.00;;
4742;SDS011;24293;48.154;7.748;2023-05-07T02:06:06;6.33;;;4.87;;
4742;SDS011;24293;48.154;7.748;2023-05-07T02:08:33;5.37;;;4.30;;
4742;SDS011;24293;48.154;7.748;2023-05-07T02:11:03;10.43;;;4.83;;
4742;SDS011;24293;48.154;7.748;2023-05-07T02:13:31;9.10;;;5.00;;
4742;SDS011;24293;48.154;7.748;2023-05-07T02:15:59;7.20;;;4.40;;
4742;SDS011;24293;48.154;7.748;2023-05-07T02:18:26;9.27;;;4.93;;
4742;SDS011;24293;48.154;7.748;2023-05-07T02:20:52;6.20;;;4.23;;
4742;SDS011;24293;48.154;7.748;2023-05-07T02:23:19;7.43;;;4.20;;
4742;SDS011;24293;48.154;7.748;2023-05-07T02:25:45;9.90;;;4.40;;
4742;SDS011;24293;48.154;7.748;2023-05-07T02:28:12;6.77;;;4.00;;
4742;SDS011;24293;48.154;7.748;2023-05-07T02:30:38;6.63;;;4.80;;
4742;SDS011;24293;48.154;7.748;2023-05-07T02:33:06;6.40;;;4.30;;
4742;SDS011;24293;48.154;7.748;2023-05-07T02:35:33;9.67;;;4.47;;
4742;SDS011;24293;48.154;7.748;2023-05-07T02:38:00;5.93;;;3.83;;
4742;SDS011;24293;48.154;7.748;2023-05-07T02:40:26;7.73;;;4.03;;
4742;SDS011;24293;48.154;7.748;2023-05-07T02:42:53;5.83;;;4.00;;
4742;SDS011;24293;48.154;7.748;2023-05-07T02:45:19;6.40;;;3.97;;
4742;SDS011;24293;48.154;7.748;2023-05-07T02:47:45;11.43;;;4.33;;
4742;SDS011;24293;48.154;7.748;2023-05-07T02:50:14;5.53;;;3.70;;
4742;SDS011;24293;48.154;7.748;2023-05-07T02:52:40;8.23;;;3.80;;
4742;SDS011;24293;48.154;7.748;2023-05-07T02:55:07;5.20;;;3.63;;
4742;SDS011;24293;48.154;7.748;2023-05-07T02:57:34;8.80;;;4.77;;
4742;SDS011;24293;48.154;7.748;2023-05-07T03:00:09;5.27;;;3.83;;
4742;SDS011;24293;48.154;7.748;2023-05-07T03:02:36;7.70;;;5.13;;
4742;SDS011;24293;48.154;7.748;2023-05-07T03:05:02;8.20;;;4.27;;
4742;SDS011;24293;48.154;7.748;2023-05-07T03:07:30;8.50;;;4.53;;
4742;SDS011;24293;48.154;7.748;2023-05-07T03:09:57;8.40;;;4.47;;
4742;SDS011;24293;48.154;7.748;2023-05-07T03:12:23;7.77;;;4.33;;
4742;SDS011;24293;48.154;7.748;2023-05-07T03:14:50;5.80;;;4.80;;
4742;SDS011;24293;48.154;7.748;2023-05-07T03:17:16;5.10;;;4.00;;
4742;SDS011;24293;48.154;7.748;2023-05-07T03:19:43;5.80;;;3.90;;
4742;SDS011;24293;48.154;7.748;2023-05-07T03:22:09;8.70;;;4.60;;
4742;SDS011;24293;48.154;7.748;2023-05-07T03:24:37;7.80;;;4.33;;
4742;SDS011;24293;48.154;7.748;2023-05-07T03:27:03;10.03;;;3.60;;
4742;SDS011;24293;48.154;7.748;2023-05-07T03:29:30;7.20;;;4.53;;
4742;SDS011;24293;48.154;7.748;2023-05-07T03:31:56;6.53;;;4.40;;
4742;SDS011;24293;48.154;7.748;2023-05-07T03:34:23;10.07;;;4.40;;
4742;SDS011;24293;48.154;7.748;2023-05-07T03:36:49;7.30;;;5.10;;
4742;SDS011;24293;48.154;7.748;2023-05-07T03:39:16;8.90;;;4.20;;
4742;SDS011;24293;48.154;7.748;2023-05-07T03:41:44;5.87;;;3.87;;
4742;SDS011;24293;48.154;7.748;2023-05-07T03:44:11;7.40;;;3.70;;
4742;SDS011;24293;48.154;7.748;2023-05-07T03:46:37;6.80;;;4.30;;
4742;SDS011;24293;48.154;7.748;2023-05-07T03:49:04;7.90;;;4.80;;
4742;SDS011;24293;48.154;7.748;2023-05-07T03:51:30;7.27;;;4.53;;
4742;SDS011;24293;48.154;7.748;2023-05-07T03:53:56;7.40;;;4.13;;
4742;SDS011;24293;48.154;7.748;2023-05-07T03:56:23;7.23;;;4.23;;
4742;SDS011;24293;48.154;7.748;2023-05-07T03:58:52;9.10;;;4.43;;
4742;SDS011;24293;48.154;7.748;2023-05-07T04:01:19;7.90;;;4.10;;
4742;SDS011;24293;48.154;7.748;2023-05-07T04:03:45;6.20;;;4.13;;
4742;SDS011;24293;48.154;7.748;2023-05-07T04:06:12;7.13;;;4.77;;
4742;SDS011;24293;48.154;7.748;2023-05-07T04:08:38;8.90;;;4.60;;
4742;SDS011;24293;48.154;7.748;2023-05-07T04:11:05;8.90;;;5.00;;
4742;SDS011;24293;48.154;7.748;2023-05-07T04:13:31;9.67;;;4.40;;
4742;SDS011;24293;48.154;7.748;2023-05-07T04:16:00;6.63;;;4.47;;
4742;SDS011;24293;48.154;7.748;2023-05-07T04:18:27;6.90;;;4.40;;
4742;SDS011;24293;48.154;7.748;2023-05-07T04:20:53;6.07;;;4.97;;
4742;SDS011;24293;48.154;7.748;2023-05-07T04:23:20;9.23;;;4.73;;
4742;SDS011;24293;48.154;7.748;2023-05-07T04:25:46;7.73;;;4.27;;
4742;SDS011;24293;48.154;7.748;2023-05-07T04:28:13;8.23;;;4.40;;
4742;SDS011;24293;48.154;7.748;2023-05-07T04:30:39;7.97;;;4.97;;
4742;SDS011;24293;48.154;7.748;2023-05-07T04:33:07;19.10;;;7.33;;
4742;SDS011;24293;48.154;7.748;2023-05-07T04:35:34;12.30;;;6.43;;
4742;SDS011;24293;48.154;7.748;2023-05-07T04:38:01;8.67;;;5.20;;
4742;SDS011;24293;48.154;7.748;2023-05-07T04:40:27;10.03;;;4.30;;
4742;SDS011;24293;48.154;7.748;2023-05-07T04:42:54;8.80;;;4.33;;
4742;SDS011;24293;48.154;7.748;2023-05-07T04:45:20;8.93;;;5.00;;
4742;SDS011;24293;48.154;7.748;2023-05-07T04:47:47;7.00;;;4.87;;
4742;SDS011;24293;48.154;7.748;2023-05-07T04:50:15;5.33;;;4.67;;
4742;SDS011;24293;48.154;7.748;2023-05-07T04:52:42;7.77;;;4.73;;
4742;SDS011;24293;48.154;7.748;2023-05-07T04:55:09;5.70;;;4.40;;
4742;SDS011;24293;48.154;7.748;2023-05-07T04:57:35;6.00;;;4.50;;
4742;SDS011;24293;48.154;7.748;2023-05-07T05:00:03;6.23;;;4.60;;
4742;SDS011;24293;48.154;7.748;2023-05-07T05:02:30;6.53;;;4.90;;
4742;SDS011;24293;48.154;7.748;2023-05-07T05:04:57;7.63;;;5.33;;
4742;SDS011;24293;48.154;7.748;2023-05-07T05:07:25;12.17;;;5.60;;
4742;SDS011;24293;48.154;7.748;2023-05-07T05:09:51;6.37;;;4.60;;
4742;SDS011;24293;48.154;7.748;2023-05-07T05:12:18;6.27;;;5.20;;
4742;SDS011;24293;48.154;7.748;2023-05-07T05:14:44;8.03;;;4.93;;
4742;SDS011;24293;48.154;7.748;2023-05-07T05:17:11;6.80;;;4.83;;
4742;SDS011;24293;48.154;7.748;2023-05-07T05:19:38;9.03;;;4.93;;
4742;SDS011;24293;48.154;7.748;2023-05-07T05:22:04;7.80;;;4.37;;
4742;SDS011;24293;48.154;7.748;2023-05-07T05:24:32;8.70;;;5.13;;
4742;SDS011;24293;48.154;7.748;2023-05-07T05:26:59;7.23;;;4.57;;
4742;SDS011;24293;48.154;7.748;2023-05-07T05:29:26;6.90;;;5.03;;
4742;SDS011;24293;48.154;7.748;2023-05-07T05:31:52;8.60;;;5.63;;
4742;SDS011;24293;48.154;7.748;2023-05-07T05:34:19;8.60;;;5.50;;
4742;SDS011;24293;48.154;7.748;2023-05-07T05:36:46;14.07;;;5.00;;
4742;SDS011;24293;48.154;7.748;2023-05-07T05:39:13;9.63;;;5.60;;
4742;SDS011;24293;48.154;7.748;2023-05-07T05:41:41;9.40;;;5.27;;
4742;SDS011;24293;48.154;7.748;2023-05-07T05:44:07;9.07;;;5.40;;
4742;SDS011;24293;48.154;7.748;2023-05-07T05:46:34;10.93;;;6.00;;
4742;SDS011;24293;48.154;7.748;2023-05-07T05:49:01;7.30;;;5.30;;
4742;SDS011;24293;48.154;7.748;2023-05-07T05:51:27;11.13;;;6.00;;
4742;SDS011;24293;48.154;7.748;2023-05-07T05:53:54;10.90;;;5.90;;
4742;SDS011;24293;48.154;7.748;2023-05-07T05:56:21;13.40;;;6.30;;
4742;SDS011;24293;48.154;7.748;2023-05-07T05:58:49;14.33;;;5.90;;
4742;SDS011;24293;48.154;7.748;2023-05-07T06:01:16;8.63;;;5.87;;
4742;SDS011;24293;48.154;7.748;2023-05-07T06:03:43;8.03;;;6.50;;
4742;SDS011;24293;48.154;7.748;2023-05-07T06:06:09;9.60;;;7.03;;
4742;SDS011;24293;48.154;7.748;2023-05-07T06:08:36;13.10;;;6.63;;
4742;SDS011;24293;48.154;7.748;2023-05-07T06:11:02;10.10;;;7.00;;
4742;SDS011;24293;48.154;7.748;2023-05-07T06:13:29;10.53;;;7.77;;
4742;SDS011;24293;48.154;7.748;2023-05-07T06:15:57;10.50;;;8.40;;
4742;SDS011;24293;48.154;7.748;2023-05-07T06:18:23;7.73;;;6.93;;
4742;SDS011;24293;48.154;7.748;2023-05-07T06:20:50;9.10;;;6.40;;
4742;SDS011;24293;48.154;7.748;2023-05-07T06:23:16;10.37;;;7.67;;
4742;SDS011;24293;48.154;7.748;2023-05-07T06:25:45;8.90;;;7.40;;
4742;SDS011;24293;48.154;7.748;2023-05-07T06:28:12;13.10;;;8.10;;
4742;SDS011;24293;48.154;7.748;2023-05-07T06:30:38;14.70;;;8.53;;
4742;SDS011;24293;48.154;7.748;2023-05-07T06:33:06;14.70;;;9.60;;
4742;SDS011;24293;48.154;7.748;2023-05-07T06:35:33;12.13;;;9.50;;
4742;SDS011;24293;48.154;7.748;2023-05-07T06:37:59;11.47;;;8.60;;
4742;SDS011;24293;48.154;7.748;2023-05-07T06:40:26;22.07;;;9.33;;
4742;SDS011;24293;48.154;7.748;2023-05-07T06:42:52;11.20;;;9.10;;
4742;SDS011;24293;48.154;7.748;2023-05-07T06:45:19;13.47;;;8.83;;
4742;SDS011;24293;48.154;7.748;2023-05-07T06:47:45;15.40;;;10.30;;
4742;SDS011;24293;48.154;7.748;2023-05-07T06:50:13;11.73;;;8.70;;
4742;SDS011;24293;48.154;7.748;2023-05-07T06:52:41;12.80;;;8.30;;
4742;SDS011;24293;48.154;7.748;2023-05-07T06:55:08;12.73;;;9.37;;
4742;SDS011;24293;48.154;7.748;2023-05-07T06:57:36;11.00;;;7.53;;
4742;SDS011;24293;48.154;7.748;2023-05-07T07:00:03;12.00;;;8.13;;
4742;SDS011;24293;48.154;7.748;2023-05-07T07:02:32;12.63;;;8.17;;
4742;SDS011;24293;48.154;7.748;2023-05-07T07:04:58;10.03;;;7.33;;
4742;SDS011;24293;48.154;7.748;2023-05-07T07:07:26;13.07;;;8.07;;
4742;SDS011;24293;48.154;7.748;2023-05-07T07:09:53;10.37;;;8.23;;
4742;SDS011;24293;48.154;7.748;2023-05-07T07:12:20;9.93;;;7.53;;
4742;SDS011;24293;48.154;7.748;2023-05-07T07:14:47;11.00;;;7.90;;
4742;SDS011;24293;48.154;7.748;2023-05-07T07:17:14;13.03;;;6.90;;
4742;SDS011;24293;48.154;7.748;2023-05-07T07:19:40;11.20;;;7.33;;
4742;SDS011;24293;48.154;7.748;2023-05-07T07:22:07;9.03;;;6.30;;
4742;SDS011;24293;48.154;7.748;2023-05-07T07:24:35;9.33;;;7.10;;
4742;SDS011;24293;48.154;7.748;2023-05-07T07:27:01;12.10;;;7.30;;
4742;SDS011;24293;48.154;7.748;2023-05-07T07:29:28;11.17;;;7.67;;
4742;SDS011;24293;48.154;7.748;2023-05-07T07:31:55;9.40;;;5.70;;
4742;SDS011;24293;48.154;7.748;2023-05-07T07:34:21;10.00;;;7.63;;
4742;SDS011;24293;48.154;7.748;2023-05-07T07:36:48;10.00;;;6.27;;
4742;SDS011;24293;48.154;7.748;2023-05-07T07:39:15;9.43;;;7.10;;
4742;SDS011;24293;48.154;7.748;2023-05-07T07:41:43;9.87;;;6.20;;
4742;SDS011;24293;48.154;7.748;2023-05-07T07:44:09;10.33;;;6.37;;
4742;SDS011;24293;48.154;7.748;2023-05-07T07:46:38;13.90;;;7.30;;
4742;SDS011;24293;48.154;7.748;2023-05-07T07:49:04;11.60;;;8.87;;
4742;SDS011;24293;48.154;7.748;2023-05-07T07:51:31;12.00;;;7.97;;
4742;SDS011;24293;48.154;7.748;2023-05-07T07:53:57;12.20;;;7.33;;
4742;SDS011;24293;48.154;7.748;2023-05-07T07:56:24;9.50;;;6.93;;
4742;SDS011;24293;48.154;7.748;2023-05-07T07:58:51;10.70;;;8.63;;
4742;SDS011;24293;48.154;7.748;2023-05-07T08:01:18;13.13;;;7.83;;
4742;SDS011;24293;48.154;7.748;2023-05-07T08:03:44;12.43;;;7.20;;
4742;SDS011;24293;48.154;7.748;2023-05-07T08:06:11;11.43;;;7.80;;
4742;SDS011;24293;48.154;7.748;2023-05-07T08:08:37;11.23;;;7.73;;
4742;SDS011;24293;48.154;7.748;2023-05-07T08:11:04;13.37;;;8.30;;
4742;SDS011;24293;48.154;7.748;2023-05-07T08:13:30;12.90;;;7.20;;
4742;SDS011;24293;48.154;7.748;2023-05-07T08:15:58;12.27;;;7.03;;
4742;SDS011;24293;48.154;7.748;2023-05-07T08:18:25;9.73;;;6.20;;
4742;SDS011;24293;48.154;7.748;2023-05-07T08:20:53;8.93;;;5.93;;
4742;SDS011;24293;48.154;7.748;2023-05-07T08:23:19;12.40;;;6.43;;
4742;SDS011;24293;48.154;7.748;2023-05-07T08:25:46;8.73;;;6.97;;
4742;SDS011;24293;48.154;7.748;2023-05-07T08:28:12;7.87;;;6.20;;
4742;SDS011;24293;48.154;7.748;2023-05-07T08:30:39;12.47;;;6.53;;
4742;SDS011;24293;48.154;7.748;2023-05-07T08:33:08;9.27;;;7.10;;
4742;SDS011;24293;48.154;7.748;2023-05-07T08:35:34;10.07;;;6.70;;
4742;SDS011;24293;48.154;7.748;2023-05-07T08:38:01;9.63;;;6.53;;
4742;SDS011;24293;48.154;7.748;2023-05-07T08:40:27;9.73;;;7.37;;
4742;SDS011;24293;48.154;7.748;2023-05-07T08:42:54;8.57;;;7.10;;
4742;SDS011;24293;48.154;7.748;2023-05-07T08:45:22;8.03;;;6.33;;
4742;SDS011;24293;48.154;7.748;2023-05-07T08:47:50;11.50;;;6.50;;
4742;SDS011;24293;48.154;7.748;2023-05-07T08:50:19;9.87;;;6.50;;
4742;SDS011;24293;48.154;7.748;2023-05-07T08:52:46;9.83;;;6.17;;
4742;SDS011;24293;48.154;7.748;2023-05-07T08:55:13;9.27;;;6.00;;
4742;SDS011;24293;48.154;7.748;2023-05-07T08:57:40;7.30;;;4.20;;
4742;SDS011;24293;48.154;7.748;2023-05-07T09:00:07;8.93;;;5.63;;
4742;SDS011;24293;48.154;7.748;2023-05-07T09:02:34;6.33;;;4.67;;
4742;SDS011;24293;48.154;7.748;2023-05-07T09:05:01;9.27;;;5.77;;
4742;SDS011;24293;48.154;7.748;2023-05-07T09:07:29;9.03;;;6.00;;
4742;SDS011;24293;48.154;7.748;2023-05-07T09:09:56;9.10;;;5.20;;
4742;SDS011;24293;48.154;7.748;2023-05-07T09:12:22;9.60;;;5.13;;
4742;SDS011;24293;48.154;7.748;2023-05-07T09:14:49;8.37;;;4.50;;
4742;SDS011;24293;48.154;7.748;2023-05-07T09:17:17;5.30;;;4.00;;
4742;SDS011;24293;48.154;7.748;2023-05-07T09:19:44;6.27;;;4.17;;
4742;SDS011;24293;48.154;7.748;2023-05-07T09:22:10;7.63;;;5.30;;
4742;SDS011;24293;48.154;7.748;2023-05-07T09:24:38;8.80;;;3.97;;
4742;SDS011;24293;48.154;7.748;2023-05-07T09:27:05;5.27;;;3.93;;
4742;SDS011;24293;48.154;7.748;2023-05-07T09:29:33;6.83;;;4.50;;
4742;SDS011;24293;48.154;7.748;2023-05-07T09:32:00;5.00;;;4.10;;
4742;SDS011;24293;48.154;7.748;2023-05-07T09:34:27;7.60;;;4.03;;
4742;SDS011;24293;48.154;7.748;2023-05-07T09:36:53;6.20;;;4.20;;
4742;SDS011;24293;48.154;7.748;2023-05-07T09:39:20;7.60;;;4.30;;
4742;SDS011;24293;48.154;7.748;2023-05-07T09:41:48;4.03;;;3.20;;
4742;SDS011;24293;48.154;7.748;2023-05-07T09:44:16;4.80;;;3.50;;
4742;SDS011;24293;48.154;7.748;2023-05-07T09:46:43;6.33;;;3.30;;
4742;SDS011;24293;48.154;7.748;2023-05-07T09:49:11;6.67;;;3.60;;
4742;SDS011;24293;48.154;7.748;2023-05-07T09:51:41;7.93;;;3.90;;
4742;SDS011;24293;48.154;7.748;2023-05-07T09:54:09;6.27;;;3.47;;
4742;SDS011;24293;48.154;7.748;2023-05-07T09:56:36;5.90;;;3.93;;
4742;SDS011;24293;48.154;7.748;2023-05-07T09:59:04;8.30;;;3.83;;
4742;SDS011;24293;48.154;7.748;2023-05-07T10:01:31;5.23;;;3.83;;
4742;SDS011;24293;48.154;7.748;2023-05-07T10:03:59;4.63;;;3.80;;
4742;SDS011;24293;48.154;7.748;2023-05-07T10:06:25;5.77;;;3.33;;
4742;SDS011;24293;48.154;7.748;2023-05-07T10:08:52;6.80;;;3.90;;
4742;SDS011;24293;48.154;7.748;2023-05-07T10:11:19;8.37;;;4.43;;
4742;SDS011;24293;48.154;7.748;2023-05-07T10:13:45;6.70;;;3.90;;
4742;SDS011;24293;48.154;7.748;2023-05-07T10:16:14;8.90;;;3.97;;
4742;SDS011;24293;48.154;7.748;2023-05-07T10:18:40;5.40;;;3.57;;
4742;SDS011;24293;48.154;7.748;2023-05-07T10:21:08;7.23;;;4.30;;
4742;SDS011;24293;48.154;7.748;2023-05-07T10:23:37;8.00;;;3.80;;
4742;SDS011;24293;48.154;7.748;2023-05-07T10:26:05;10.07;;;4.90;;
4742;SDS011;24293;48.154;7.748;2023-05-07T10:28:33;7.23;;;4.50;;
4742;SDS011;24293;48.154;7.748;2023-05-07T10:31:04;7.43;;;5.73;;
4742;SDS011;24293;48.154;7.748;2023-05-07T10:33:34;11.03;;;4.73;;
4742;SDS011;24293;48.154;7.748;2023-05-07T10:36:02;9.80;;;5.60;;
4742;SDS011;24293;48.154;7.748;2023-05-07T10:38:30;6.07;;;4.90;;
4742;SDS011;24293;48.154;7.748;2023-05-07T10:40:57;24.37;;;6.63;;
4742;SDS011;24293;48.154;7.748;2023-05-07T10:43:24;11.53;;;6.00;;
4742;SDS011;24293;48.154;7.748;2023-05-07T10:48:36;8.57;;;6.27;;
4742;SDS011;24293;48.154;7.748;2023-05-07T10:51:22;9.13;;;6.27;;
4742;SDS011;24293;48.154;7.748;2023-05-07T10:53:48;12.13;;;6.30;;
4742;SDS011;24293;48.154;7.748;2023-05-07T10:56:35;9.10;;;6.50;;
4742;SDS011;24293;48.154;7.748;2023-05-07T11:01:49;14.03;;;6.57;;
4742;SDS011;24293;48.154;7.748;2023-05-07T11:04:17;8.10;;;6.67;;
4742;SDS011;24293;48.154;7.748;2023-05-07T11:12:12;6.80;;;5.07;;
4742;SDS011;24293;48.154;7.748;2023-05-07T11:14:44;13.27;;;5.27;;
4742;SDS011;24293;48.154;7.748;2023-05-07T11:17:11;14.90;;;5.20;;
4742;SDS011;24293;48.154;7.748;2023-05-07T11:19:49;9.20;;;5.57;;
4742;SDS011;24293;48.154;7.748;2023-05-07T11:24:58;7.93;;;5.03;;
4742;SDS011;24293;48.154;7.748;2023-05-07T11:27:25;6.43;;;4.60;;
4742;SDS011;24293;48.154;7.748;2023-05-07T11:29:52;7.03;;;4.97;;
4742;SDS011;24293;48.154;7.748;2023-05-07T11:32:22;8.77;;;5.20;;
4742;SDS011;24293;48.154;7.748;2023-05-07T11:34:52;7.40;;;4.87;;
4742;SDS011;24293;48.154;7.748;2023-05-07T11:37:18;6.37;;;4.77;;
4742;SDS011;24293;48.154;7.748;2023-05-07T11:39:45;8.13;;;5.70;;
4742;SDS011;24293;48.154;7.748;2023-05-07T11:42:24;8.60;;;5.90;;
4742;SDS011;24293;48.154;7.748;2023-05-07T11:44:51;7.00;;;4.83;;
4742;SDS011;24293;48.154;7.748;2023-05-07T11:47:18;10.00;;;4.90;;
4742;SDS011;24293;48.154;7.748;2023-05-07T11:49:45;9.97;;;5.57;;
4742;SDS011;24293;48.154;7.748;2023-05-07T11:52:14;9.50;;;5.90;;
4742;SDS011;24293;48.154;7.748;2023-05-07T11:54:41;8.30;;;4.97;;
4742;SDS011;24293;48.154;7.748;2023-05-07T11:57:12;6.80;;;5.03;;
4742;SDS011;24293;48.154;7.748;2023-05-07T11:59:40;6.87;;;4.73;;
4742;SDS011;24293;48.154;7.748;2023-05-07T12:02:07;9.63;;;4.77;;
4742;SDS011;24293;48.154;7.748;2023-05-07T12:04:33;7.33;;;5.13;;
4742;SDS011;24293;48.154;7.748;2023-05-07T12:07:00;7.37;;;5.20;;
4742;SDS011;24293;48.154;7.748;2023-05-07T12:09:28;7.90;;;4.70;;
4742;SDS011;24293;48.154;7.748;2023-05-07T12:11:54;9.27;;;5.77;;
4742;SDS011;24293;48.154;7.748;2023-05-07T12:14:21;9.67;;;5.23;;
4742;SDS011;24293;48.154;7.748;2023-05-07T12:16:48;8.57;;;4.20;;
4742;SDS011;24293;48.154;7.748;2023-05-07T12:19:16;6.43;;;4.40;;
4742;SDS011;24293;48.154;7.748;2023-05-07T12:21:43;8.60;;;4.70;;
4742;SDS011;24293;48.154;7.748;2023-05-07T12:24:09;4.70;;;3.97;;
4742;SDS011;24293;48.154;7.748;2023-05-07T12:26:38;6.77;;;4.50;;
4742;SDS011;24293;48.154;7.748;2023-05-07T12:29:06;6.30;;;4.20;;
4742;SDS011;24293;48.154;7.748;2023-05-07T12:31:32;5.63;;;4.33;;
4742;SDS011;24293;48.154;7.748;2023-05-07T12:33:59;6.70;;;5.10;;
4742;SDS011;24293;48.154;7.748;2023-05-07T12:36:25;7.00;;;4.87;;
4742;SDS011;24293;48.154;7.748;2023-05-07T12:38:52;7.70;;;4.40;;
4742;SDS011;24293;48.154;7.748;2023-05-07T12:41:20;8.87;;;4.43;;
4742;SDS011;24293;48.154;7.748;2023-05-07T12:43:53;7.20;;;4.73;;
4742;SDS011;24293;48.154;7.748;2023-05-07T12:46:22;9.10;;;4.50;;
4742;SDS011;24293;48.154;7.748;2023-05-07T12:48:48;6.10;;;4.83;;
4742;SDS011;24293;48.154;7.748;2023-05-07T12:51:15;6.83;;;4.53;;
4742;SDS011;24293;48.154;7.748;2023-05-07T12:53:42;6.23;;;4.47;;
4742;SDS011;24293;48.154;7.748;2023-05-07T12:56:08;7.87;;;4.70;;
4742;SDS011;24293;48.154;7.748;2023-05-07T12:58:35;12.00;;;4.90;;
4742;SDS011;24293;48.154;7.748;2023-05-07T13:01:06;12.63;;;5.17;;
4742;SDS011;24293;48.154;7.748;2023-05-07T13:03:35;9.33;;;5.00;;
4742;SDS011;24293;48.154;7.748;2023-05-07T13:06:03;7.00;;;4.90;;
4742;SDS011;24293;48.154;7.748;2023-05-07T13:08:30;6.00;;;4.60;;
4742;SDS011;24293;48.154;7.748;2023-05-07T13:10:57;8.10;;;4.93;;
4742;SDS011;24293;48.154;7.748;2023-05-07T13:13:24;8.17;;;4.70;;
4742;SDS011;24293;48.154;7.748;2023-05-07T13:15:51;10.83;;;4.37;;
4742;SDS011;24293;48.154;7.748;2023-05-07T13:18:19;7.27;;;4.40;;
4742;SDS011;24293;48.154;7.748;2023-05-07T13:20:45;6.30;;;3.97;;
4742;SDS011;24293;48.154;7.748;2023-05-07T13:23:11;6.73;;;4.00;;
4742;SDS011;24293;48.154;7.748;2023-05-07T13:25:38;9.50;;;5.00;;
4742;SDS011;24293;48.154;7.748;2023-05-07T13:28:05;7.50;;;4.80;;
4742;SDS011;24293;48.154;7.748;2023-05-07T13:30:31;10.20;;;4.77;;
4742;SDS011;24293;48.154;7.748;2023-05-07T13:32:58;8.13;;;4.50;;
4742;SDS011;24293;48.154;7.748;2023-05-07T13:35:25;7.57;;;4.00;;
4742;SDS011;24293;48.154;7.748;2023-05-07T13:37:52;7.40;;;4.60;;
4742;SDS011;24293;48.154;7.748;2023-05-07T13:40:19;6.57;;;4.43;;
4742;SDS011;24293;48.154;7.748;2023-05-07T13:42:46;7.80;;;4.10;;
4742;SDS011;24293;48.154;7.748;2023-05-07T13:45:12;6.63;;;4.43;;
4742;SDS011;24293;48.154;7.748;2023-05-07T13:47:39;8.90;;;4.83;;
4742;SDS011;24293;48.154;7.748;2023-05-07T13:50:06;5.60;;;4.40;;
4742;SDS011;24293;48.154;7.748;2023-05-07T13:52:34;7.00;;;4.80;;
4742;SDS011;24293;48.154;7.748;2023-05-07T13:55:01;6.40;;;4.77;;
4742;SDS011;24293;48.154;7.748;2023-05-07T13:57:27;6.40;;;5.30;;
4742;SDS011;24293;48.154;7.748;2023-05-07T13:59:54;5.47;;;4.00;;
4742;SDS011;24293;48.154;7.748;2023-05-07T14:02:20;4.63;;;3.90;;
4742;SDS011;24293;48.154;7.748;2023-05-07T14:04:46;5.13;;;3.80;;
4742;SDS011;24293;48.154;7.748;2023-05-07T14:07:13;5.73;;;3.50;;
4742;SDS011;24293;48.154;7.748;2023-05-07T14:09:41;6.77;;;3.70;;
4742;SDS011;24293;48.154;7.748;2023-05-07T14:12:07;5.00;;;2.60;;
4742;SDS011;24293;48.154;7.748;2023-05-07T14:14:37;4.97;;;3.00;;
4742;SDS011;24293;48.154;7.748;2023-05-07T14:17:03;4.50;;;2.67;;
4742;SDS011;24293;48.154;7.748;2023-05-07T14:19:30;5.13;;;2.80;;
4742;SDS011;24293;48.154;7.748;2023-05-07T14:21:57;7.47;;;3.13;;
4742;SDS011;24293;48.154;7.748;2023-05-07T14:24:23;2.97;;;1.80;;
4742;SDS011;24293;48.154;7.748;2023-05-07T14:26:51;2.77;;;1.80;;
4742;SDS011;24293;48.154;7.748;2023-05-07T14:29:18;3.60;;;2.00;;
4742;SDS011;24293;48.154;7.748;2023-05-07T14:31:44;3.27;;;2.00;;
4742;SDS011;24293;48.154;7.748;2023-05-07T14:34:11;2.50;;;1.70;;
4742;SDS011;24293;48.154;7.748;2023-05-07T14:36:38;3.60;;;1.93;;
4742;SDS011;24293;48.154;7.748;2023-05-07T14:39:04;4.50;;;2.40;;
4742;SDS011;24293;48.154;7.748;2023-05-07T14:41:31;4.93;;;2.47;;
4742;SDS011;24293;48.154;7.748;2023-05-07T14:43:59;4.13;;;2.33;;
4742;SDS011;24293;48.154;7.748;2023-05-07T14:46:26;8.20;;;4.27;;
4742;SDS011;24293;48.154;7.748;2023-05-07T14:48:53;8.63;;;5.00;;
4742;SDS011;24293;48.154;7.748;2023-05-07T14:51:20;8.47;;;2.83;;
4742;SDS011;24293;48.154;7.748;2023-05-07T14:53:46;6.00;;;3.10;;
4742;SDS011;24293;48.154;7.748;2023-05-07T14:56:13;3.03;;;2.40;;
4742;SDS011;24293;48.154;7.748;2023-05-07T14:58:39;3.27;;;1.90;;
4742;SDS011;24293;48.154;7.748;2023-05-07T15:01:07;4.87;;;2.00;;
4742;SDS011;24293;48.154;7.748;2023-05-07T15:03:34;3.70;;;2.10;;
4742;SDS011;24293;48.154;7.748;2023-05-07T15:06:01;3.37;;;2.07;;
4742;SDS011;24293;48.154;7.748;2023-05-07T15:08:27;5.53;;;1.90;;
4742;SDS011;24293;48.154;7.748;2023-05-07T15:10:54;5.30;;;2.53;;